sensor_id;sensor_type;location;lat;lon;timestamp;pressure;altitude;pressure_sealevel;temperature;humidity
49311;BME280;35177;45.900;5.946;2023-02-10T00:02:21;99417.91;;;-5.65;100.00
49311;BME280;35177;45.900;5.946;2023-02-10T00:04:46;99420.25;;;-5.70;100.00
49311;BME280;35177;45.900;5.946;2023-02-10T00:07:12;99419.31;;;-5.27;100.00
49311;BME280;35177;45.900;5.946;2023-02-10T00:09:37;99423.38;;;-5.32;100.00
49311;BME280;35177;45.900;5.946;2023-02-10T00:12:03;99423.19;;;-5.30;100.00
49311;BME280;35177;45.900;5.946;2023-02-10T00:14:29;99424.91;;;-5.45;100.00
49311;BME280;35177;45.900;5.946;2023-02-10T00:16:56;99428.94;;;-5.41;100.00
49311;BME280;35177;45.900;5.946;2023-02-10T00:19:24;99425.06;;;-5.39;100.00
49311;BME280;35177;45.900;5.946;2023-02-10T00:21:50;99429.81;;;-5.33;100.00
49311;BME280;35177;45.900;5.946;2023-02-10T00:24:16;99434.34;;;-5.41;100.00
49311;BME280;35177;45.900;5.946;2023-02-10T00:26:42;99441.56;;;-5.75;100.00
49311;BME280;35177;45.900;5.946;2023-02-10T00:29:07;99444.59;;;-5.70;100.00
49311;BME280;35177;45.900;5.946;2023-02-10T00:31:33;99443.38;;;-5.84;100.00
49311;BME280;35177;45.900;5.946;2023-02-10T00:33:58;99441.81;;;-6.03;100.00
49311;BME280;35177;45.900;5.946;2023-02-10T00:36:24;99439.41;;;-6.14;100.00
49311;BME280;35177;45.900;5.946;2023-02-10T00:38:50;99435.63;;;-5.78;100.00
49311;BME280;35177;45.900;5.946;2023-02-10T00:41:18;99445.06;;;-5.83;100.00
49311;BME280;35177;45.900;5.946;2023-02-10T00:43:44;99446.69;;;-5.98;100.00
49311;BME280;35177;45.900;5.946;2023-02-10T00:46:15;99434.66;;;-6.20;100.00
49311;BME280;35177;45.900;5.946;2023-02-10T00:48:41;99442.56;;;-6.19;100.00
49311;BME280;35177;45.900;5.946;2023-02-10T00:51:07;99441.88;;;-6.29;100.00
49311;BME280;35177;45.900;5.946;2023-02-10T00:53:33;99444.28;;;-6.18;100.00
49311;BME280;35177;45.900;5.946;2023-02-10T00:55:59;99446.22;;;-6.02;100.00
49311;BME280;35177;45.900;5.946;2023-02-10T00:58:25;99454.00;;;-5.90;100.00
49311;BME280;35177;45.900;5.946;2023-02-10T01:00:51;99457.88;;;-5.93;100.00
49311;BME280;35177;45.900;5.946;2023-02-10T01:03:16;99460.56;;;-5.93;100.00
49311;BME280;35177;45.900;5.946;2023-02-10T01:05:42;99452.25;;;-5.49;100.00
49311;BME280;35177;45.900;5.946;2023-02-10T01:08:10;99457.63;;;-5.57;100.00
49311;BME280;35177;45.900;5.946;2023-02-10T01:10:35;99455.63;;;-5.55;100.00
49311;BME280;35177;45.900;5.946;2023-02-10T01:13:04;99456.47;;;-5.62;100.00
49311;BME280;35177;45.900;5.946;2023-02-10T01:15:31;99465.06;;;-5.67;100.00
49311;BME280;35177;45.900;5.946;2023-02-10T01:17:56;99462.84;;;-5.80;100.00
49311;BME280;35177;45.900;5.946;2023-02-10T01:20:22;99463.56;;;-6.13;100.00
49311;BME280;35177;45.900;5.946;2023-02-10T01:22:48;99456.38;;;-5.79;100.00
49311;BME280;35177;45.900;5.946;2023-02-10T01:25:13;99464.50;;;-5.79;100.00
49311;BME280;35177;45.900;5.946;2023-02-10T01:27:39;99464.66;;;-5.81;100.00
49311;BME280;35177;45.900;5.946;2023-02-10T01:30:05;99463.75;;;-5.98;100.00
49311;BME280;35177;45.900;5.946;2023-02-10T01:32:31;99471.22;;;-6.00;100.00
49311;BME280;35177;45.900;5.946;2023-02-10T01:34:56;99466.94;;;-6.10;100.00
49311;BME280;35177;45.900;5.946;2023-02-10T01:37:22;99458.25;;;-6.22;100.00
49311;BME280;35177;45.900;5.946;2023-02-10T01:39:47;99458.50;;;-6.42;100.00
49311;BME280;35177;45.900;5.946;2023-02-10T01:42:14;99459.53;;;-6.35;100.00
49311;BME280;35177;45.900;5.946;2023-02-10T01:47:06;99461.34;;;-6.43;100.00
49311;BME280;35177;45.900;5.946;2023-02-10T01:49:36;99470.53;;;-6.28;100.00
49311;BME280;35177;45.900;5.946;2023-02-10T01:54:38;99458.38;;;-6.32;100.00
49311;BME280;35177;45.900;5.946;2023-02-10T01:57:04;99450.72;;;-6.45;100.00
49311;BME280;35177;45.900;5.946;2023-02-10T01:59:33;99440.53;;;-6.25;100.00
49311;BME280;35177;45.900;5.946;2023-02-10T02:02:00;99453.56;;;-6.47;100.00
49311;BME280;35177;45.900;5.946;2023-02-10T02:04:38;99446.69;;;-6.41;100.00
49311;BME280;35177;45.900;5.946;2023-02-10T02:07:06;99445.09;;;-6.52;100.00
49311;BME280;35177;45.900;5.946;2023-02-10T02:09:31;99452.13;;;-6.33;100.00
49311;BME280;35177;45.900;5.946;2023-02-10T02:12:30;99457.91;;;-6.54;100.00
49311;BME280;35177;45.900;5.946;2023-02-10T02:15:25;99450.78;;;-6.63;100.00
49311;BME280;35177;45.900;5.946;2023-02-10T02:18:16;99452.56;;;-6.72;100.00
49311;BME280;35177;45.900;5.946;2023-02-10T02:21:12;99461.72;;;-6.65;100.00
49311;BME280;35177;45.900;5.946;2023-02-10T02:31:48;99456.63;;;-6.68;100.00
49311;BME280;35177;45.900;5.946;2023-02-10T02:37:29;99448.88;;;-6.71;100.00
49311;BME280;35177;45.900;5.946;2023-02-10T02:39:55;99456.09;;;-6.71;100.00
49311;BME280;35177;45.900;5.946;2023-02-10T02:42:25;99451.69;;;-6.72;100.00
49311;BME280;35177;45.900;5.946;2023-02-10T02:45:04;99452.44;;;-6.88;100.00
49311;BME280;35177;45.900;5.946;2023-02-10T02:48:20;99449.09;;;-6.82;100.00
49311;BME280;35177;45.900;5.946;2023-02-10T02:51:13;99444.66;;;-6.91;100.00
49311;BME280;35177;45.900;5.946;2023-02-10T02:56:46;99453.28;;;-6.88;100.00
49311;BME280;35177;45.900;5.946;2023-02-10T02:59:36;99448.34;;;-6.92;100.00
49311;BME280;35177;45.900;5.946;2023-02-10T03:02:08;99459.31;;;-6.94;100.00
49311;BME280;35177;45.900;5.946;2023-02-10T03:04:36;99458.97;;;-6.73;100.00
49311;BME280;35177;45.900;5.946;2023-02-10T03:07:04;99451.13;;;-6.58;100.00
49311;BME280;35177;45.900;5.946;2023-02-10T03:09:30;99451.44;;;-6.35;100.00
49311;BME280;35177;45.900;5.946;2023-02-10T03:11:56;99462.44;;;-6.28;100.00
49311;BME280;35177;45.900;5.946;2023-02-10T03:14:22;99449.03;;;-6.46;100.00
49311;BME280;35177;45.900;5.946;2023-02-10T03:16:47;99461.88;;;-6.66;100.00
49311;BME280;35177;45.900;5.946;2023-02-10T03:19:13;99456.47;;;-6.66;100.00
49311;BME280;35177;45.900;5.946;2023-02-10T03:21:39;99447.06;;;-6.62;100.00
49311;BME280;35177;45.900;5.946;2023-02-10T03:24:04;99447.25;;;-6.55;100.00
49311;BME280;35177;45.900;5.946;2023-02-10T03:26:30;99454.00;;;-6.59;100.00
49311;BME280;35177;45.900;5.946;2023-02-10T03:28:56;99447.63;;;-6.50;100.00
49311;BME280;35177;45.900;5.946;2023-02-10T03:31:22;99451.41;;;-6.69;100.00
49311;BME280;35177;45.900;5.946;2023-02-10T03:33:47;99455.00;;;-6.87;100.00
49311;BME280;35177;45.900;5.946;2023-02-10T03:36:13;99442.59;;;-6.71;100.00
49311;BME280;35177;45.900;5.946;2023-02-10T03:38:39;99441.06;;;-6.74;100.00
49311;BME280;35177;45.900;5.946;2023-02-10T03:41:04;99450.06;;;-6.91;100.00
49311;BME280;35177;45.900;5.946;2023-02-10T03:43:30;99450.00;;;-7.18;100.00
49311;BME280;35177;45.900;5.946;2023-02-10T03:46:01;99451.94;;;-7.28;100.00
49311;BME280;35177;45.900;5.946;2023-02-10T03:48:27;99451.22;;;-6.94;100.00
49311;BME280;35177;45.900;5.946;2023-02-10T03:51:00;99455.47;;;-7.10;100.00
49311;BME280;35177;45.900;5.946;2023-02-10T03:53:27;99457.78;;;-7.15;100.00
49311;BME280;35177;45.900;5.946;2023-02-10T03:55:53;99456.47;;;-7.11;100.00
49311;BME280;35177;45.900;5.946;2023-02-10T03:58:18;99453.13;;;-7.04;100.00
49311;BME280;35177;45.900;5.946;2023-02-10T04:00:44;99458.16;;;-7.10;100.00
49311;BME280;35177;45.900;5.946;2023-02-10T04:03:10;99450.31;;;-7.21;100.00
49311;BME280;35177;45.900;5.946;2023-02-10T04:05:35;99444.22;;;-7.23;100.00
49311;BME280;35177;45.900;5.946;2023-02-10T04:08:01;99452.94;;;-7.11;100.00
49311;BME280;35177;45.900;5.946;2023-02-10T04:10:27;99446.13;;;-7.15;100.00
49311;BME280;35177;45.900;5.946;2023-02-10T04:12:52;99451.69;;;-7.17;100.00
49311;BME280;35177;45.900;5.946;2023-02-10T04:15:18;99457.63;;;-7.31;100.00
49311;BME280;35177;45.900;5.946;2023-02-10T04:17:44;99453.38;;;-7.34;100.00
49311;BME280;35177;45.900;5.946;2023-02-10T04:20:11;99459.19;;;-7.29;100.00
49311;BME280;35177;45.900;5.946;2023-02-10T04:22:37;99452.22;;;-6.95;100.00
49311;BME280;35177;45.900;5.946;2023-02-10T04:25:03;99455.84;;;-7.04;100.00
49311;BME280;35177;45.900;5.946;2023-02-10T04:27:29;99458.69;;;-7.06;100.00
49311;BME280;35177;45.900;5.946;2023-02-10T04:29:54;99464.63;;;-7.20;100.00
49311;BME280;35177;45.900;5.946;2023-02-10T04:32:20;99466.25;;;-7.28;100.00
49311;BME280;35177;45.900;5.946;2023-02-10T04:34:45;99466.34;;;-7.19;100.00
49311;BME280;35177;45.900;5.946;2023-02-10T04:37:11;99465.56;;;-7.12;100.00
49311;BME280;35177;45.900;5.946;2023-02-10T04:39:37;99470.66;;;-7.08;100.00
49311;BME280;35177;45.900;5.946;2023-02-10T04:42:02;99478.66;;;-7.17;100.00
49311;BME280;35177;45.900;5.946;2023-02-10T04:44:28;99480.97;;;-7.22;100.00
49311;BME280;35177;45.900;5.946;2023-02-10T04:46:53;99483.66;;;-7.40;100.00
49311;BME280;35177;45.900;5.946;2023-02-10T04:49:19;99486.53;;;-7.42;100.00
49311;BME280;35177;45.900;5.946;2023-02-10T04:51:44;99483.22;;;-7.35;100.00
49311;BME280;35177;45.900;5.946;2023-02-10T04:54:10;99490.00;;;-7.13;100.00
49311;BME280;35177;45.900;5.946;2023-02-10T04:56:35;99486.31;;;-7.12;100.00
49311;BME280;35177;45.900;5.946;2023-02-10T04:59:01;99485.91;;;-7.35;100.00
49311;BME280;35177;45.900;5.946;2023-02-10T05:01:26;99486.69;;;-7.25;100.00
49311;BME280;35177;45.900;5.946;2023-02-10T05:03:52;99481.63;;;-7.56;100.00
49311;BME280;35177;45.900;5.946;2023-02-10T05:06:17;99471.16;;;-7.41;100.00
49311;BME280;35177;45.900;5.946;2023-02-10T05:08:43;99475.44;;;-7.38;100.00
49311;BME280;35177;45.900;5.946;2023-02-10T05:11:10;99474.81;;;-7.50;100.00
49311;BME280;35177;45.900;5.946;2023-02-10T05:13:37;99480.47;;;-7.53;100.00
49311;BME280;35177;45.900;5.946;2023-02-10T05:16:03;99479.13;;;-7.39;100.00
49311;BME280;35177;45.900;5.946;2023-02-10T05:18:32;99485.66;;;-7.24;100.00
49311;BME280;35177;45.900;5.946;2023-02-10T05:20:59;99480.75;;;-7.29;100.00
49311;BME280;35177;45.900;5.946;2023-02-10T05:23:25;99478.81;;;-7.36;100.00
49311;BME280;35177;45.900;5.946;2023-02-10T05:25:51;99481.75;;;-7.30;100.00
49311;BME280;35177;45.900;5.946;2023-02-10T05:28:16;99480.97;;;-7.40;100.00
49311;BME280;35177;45.900;5.946;2023-02-10T05:30:42;99486.28;;;-7.48;100.00
49311;BME280;35177;45.900;5.946;2023-02-10T05:33:08;99490.25;;;-7.70;100.00
49311;BME280;35177;45.900;5.946;2023-02-10T05:35:33;99494.28;;;-7.56;100.00
49311;BME280;35177;45.900;5.946;2023-02-10T05:37:59;99496.47;;;-7.42;100.00
49311;BME280;35177;45.900;5.946;2023-02-10T05:40:27;99497.00;;;-7.38;100.00
49311;BME280;35177;45.900;5.946;2023-02-10T05:42:53;99505.84;;;-7.46;100.00
49311;BME280;35177;45.900;5.946;2023-02-10T05:45:19;99506.66;;;-7.64;100.00
49311;BME280;35177;45.900;5.946;2023-02-10T05:47:45;99498.34;;;-7.70;100.00
49311;BME280;35177;45.900;5.946;2023-02-10T05:50:10;99496.00;;;-7.83;100.00
49311;BME280;35177;45.900;5.946;2023-02-10T05:52:36;99503.09;;;-7.82;100.00
49311;BME280;35177;45.900;5.946;2023-02-10T05:55:02;99510.22;;;-7.91;100.00
49311;BME280;35177;45.900;5.946;2023-02-10T05:57:28;99504.16;;;-8.03;100.00
49311;BME280;35177;45.900;5.946;2023-02-10T05:59:53;99503.25;;;-7.84;100.00
49311;BME280;35177;45.900;5.946;2023-02-10T06:02:19;99505.84;;;-7.64;100.00
49311;BME280;35177;45.900;5.946;2023-02-10T06:04:44;99504.75;;;-7.53;100.00
49311;BME280;35177;45.900;5.946;2023-02-10T06:07:10;99509.38;;;-7.64;100.00
49311;BME280;35177;45.900;5.946;2023-02-10T06:09:35;99510.75;;;-7.60;100.00
49311;BME280;35177;45.900;5.946;2023-02-10T06:12:01;99514.81;;;-7.73;100.00
49311;BME280;35177;45.900;5.946;2023-02-10T06:14:27;99518.59;;;-7.66;100.00
49311;BME280;35177;45.900;5.946;2023-02-10T06:16:53;99519.59;;;-7.67;100.00
49311;BME280;35177;45.900;5.946;2023-02-10T06:19:18;99520.47;;;-7.49;100.00
49311;BME280;35177;45.900;5.946;2023-02-10T06:21:44;99523.88;;;-7.75;100.00
49311;BME280;35177;45.900;5.946;2023-02-10T06:24:09;99515.03;;;-7.67;100.00
49311;BME280;35177;45.900;5.946;2023-02-10T06:26:35;99525.47;;;-7.54;100.00
49311;BME280;35177;45.900;5.946;2023-02-10T06:29:01;99520.47;;;-7.49;100.00
49311;BME280;35177;45.900;5.946;2023-02-10T06:31:27;99529.44;;;-7.76;100.00
49311;BME280;35177;45.900;5.946;2023-02-10T06:33:53;99522.59;;;-7.70;100.00
49311;BME280;35177;45.900;5.946;2023-02-10T06:36:18;99539.25;;;-7.85;100.00
49311;BME280;35177;45.900;5.946;2023-02-10T06:38:44;99532.72;;;-7.54;100.00
49311;BME280;35177;45.900;5.946;2023-02-10T06:41:09;99529.22;;;-7.93;100.00
49311;BME280;35177;45.900;5.946;2023-02-10T06:43:35;99526.47;;;-7.83;100.00
49311;BME280;35177;45.900;5.946;2023-02-10T06:46:00;99533.34;;;-7.61;100.00
49311;BME280;35177;45.900;5.946;2023-02-10T06:48:26;99536.03;;;-7.61;100.00
49311;BME280;35177;45.900;5.946;2023-02-10T06:50:52;99538.25;;;-7.56;100.00
49311;BME280;35177;45.900;5.946;2023-02-10T06:53:18;99543.53;;;-7.54;100.00
49311;BME280;35177;45.900;5.946;2023-02-10T06:55:43;99539.94;;;-7.55;100.00
49311;BME280;35177;45.900;5.946;2023-02-10T06:58:10;99537.63;;;-7.68;100.00
49311;BME280;35177;45.900;5.946;2023-02-10T07:00:35;99544.13;;;-7.61;100.00
49311;BME280;35177;45.900;5.946;2023-02-10T07:03:01;99542.31;;;-7.42;100.00
49311;BME280;35177;45.900;5.946;2023-02-10T07:05:27;99551.06;;;-7.40;100.00
49311;BME280;35177;45.900;5.946;2023-02-10T07:07:53;99555.47;;;-7.39;100.00
49311;BME280;35177;45.900;5.946;2023-02-10T07:10:20;99561.22;;;-7.06;100.00
49311;BME280;35177;45.900;5.946;2023-02-10T07:12:45;99551.91;;;-6.75;100.00
49311;BME280;35177;45.900;5.946;2023-02-10T07:15:13;99545.34;;;-6.55;100.00
49311;BME280;35177;45.900;5.946;2023-02-10T07:17:39;99551.38;;;-6.61;100.00
49311;BME280;35177;45.900;5.946;2023-02-10T07:20:05;99553.25;;;-6.35;100.00
49311;BME280;35177;45.900;5.946;2023-02-10T07:22:31;99549.66;;;-6.18;100.00
49311;BME280;35177;45.900;5.946;2023-02-10T07:24:56;99545.38;;;-5.94;100.00
49311;BME280;35177;45.900;5.946;2023-02-10T07:27:22;99548.88;;;-5.67;100.00
49311;BME280;35177;45.900;5.946;2023-02-10T07:29:48;99546.41;;;-5.52;100.00
49311;BME280;35177;45.900;5.946;2023-02-10T07:32:14;99548.81;;;-5.49;100.00
49311;BME280;35177;45.900;5.946;2023-02-10T07:34:40;99545.41;;;-5.51;100.00
49311;BME280;35177;45.900;5.946;2023-02-10T07:37:06;99544.97;;;-5.30;100.00
49311;BME280;35177;45.900;5.946;2023-02-10T07:39:31;99549.50;;;-5.39;100.00
49311;BME280;35177;45.900;5.946;2023-02-10T07:41:57;99546.53;;;-5.19;100.00
49311;BME280;35177;45.900;5.946;2023-02-10T07:44:23;99538.44;;;-5.03;100.00
49311;BME280;35177;45.900;5.946;2023-02-10T07:46:51;99541.34;;;-4.96;100.00
49311;BME280;35177;45.900;5.946;2023-02-10T07:49:18;99543.06;;;-4.54;100.00
49311;BME280;35177;45.900;5.946;2023-02-10T07:51:43;99547.63;;;-4.38;100.00
49311;BME280;35177;45.900;5.946;2023-02-10T07:54:09;99544.38;;;-4.00;100.00
49311;BME280;35177;45.900;5.946;2023-02-10T07:56:35;99542.94;;;-3.71;100.00
49311;BME280;35177;45.900;5.946;2023-02-10T07:59:00;99536.47;;;-3.62;100.00
49311;BME280;35177;45.900;5.946;2023-02-10T08:01:27;99541.63;;;-3.35;100.00
49311;BME280;35177;45.900;5.946;2023-02-10T08:03:52;99547.28;;;-3.14;100.00
49311;BME280;35177;45.900;5.946;2023-02-10T08:06:23;99545.34;;;-3.05;100.00
49311;BME280;35177;45.900;5.946;2023-02-10T08:08:49;99546.16;;;-2.73;100.00
49311;BME280;35177;45.900;5.946;2023-02-10T08:11:15;99543.63;;;-2.75;100.00
49311;BME280;35177;45.900;5.946;2023-02-10T08:13:41;99540.97;;;-2.60;100.00
49311;BME280;35177;45.900;5.946;2023-02-10T08:16:07;99540.72;;;-2.50;100.00
49311;BME280;35177;45.900;5.946;2023-02-10T08:18:34;99545.66;;;-2.30;100.00
49311;BME280;35177;45.900;5.946;2023-02-10T08:21:00;99547.84;;;-2.26;100.00
49311;BME280;35177;45.900;5.946;2023-02-10T08:23:26;99551.28;;;-1.94;100.00
49311;BME280;35177;45.900;5.946;2023-02-10T08:25:51;99547.06;;;-1.81;100.00
49311;BME280;35177;45.900;5.946;2023-02-10T08:28:18;99544.25;;;-1.58;100.00
49311;BME280;35177;45.900;5.946;2023-02-10T08:30:44;99541.25;;;-1.48;100.00
49311;BME280;35177;45.900;5.946;2023-02-10T08:33:09;99536.41;;;-1.16;100.00
49311;BME280;35177;45.900;5.946;2023-02-10T08:35:39;99546.59;;;-0.88;100.00
49311;BME280;35177;45.900;5.946;2023-02-10T08:38:05;99538.56;;;-0.75;100.00
49311;BME280;35177;45.900;5.946;2023-02-10T08:40:32;99540.34;;;-0.45;100.00
49311;BME280;35177;45.900;5.946;2023-02-10T08:42:58;99541.66;;;-0.13;100.00
49311;BME280;35177;45.900;5.946;2023-02-10T08:45:23;99549.38;;;0.40;100.00
49311;BME280;35177;45.900;5.946;2023-02-10T08:47:49;99538.66;;;0.39;100.00
49311;BME280;35177;45.900;5.946;2023-02-10T08:50:14;99546.25;;;0.85;100.00
49311;BME280;35177;45.900;5.946;2023-02-10T08:52:40;99536.31;;;1.33;100.00
49311;BME280;35177;45.900;5.946;2023-02-10T08:55:06;99532.38;;;1.62;100.00
49311;BME280;35177;45.900;5.946;2023-02-10T08:57:33;99531.50;;;1.48;100.00
49311;BME280;35177;45.900;5.946;2023-02-10T08:59:59;99530.47;;;1.49;100.00
49311;BME280;35177;45.900;5.946;2023-02-10T09:02:25;99538.06;;;1.60;100.00
49311;BME280;35177;45.900;5.946;2023-02-10T09:04:50;99533.88;;;1.85;100.00
49311;BME280;35177;45.900;5.946;2023-02-10T09:07:16;99531.31;;;1.76;100.00
49311;BME280;35177;45.900;5.946;2023-02-10T09:09:42;99532.81;;;1.92;100.00
49311;BME280;35177;45.900;5.946;2023-02-10T09:12:11;99530.88;;;2.27;100.00
49311;BME280;35177;45.900;5.946;2023-02-10T09:14:38;99524.56;;;2.26;100.00
49311;BME280;35177;45.900;5.946;2023-02-10T09:17:05;99523.53;;;2.93;100.00
49311;BME280;35177;45.900;5.946;2023-02-10T09:19:36;99518.69;;;3.27;100.00
49311;BME280;35177;45.900;5.946;2023-02-10T09:22:05;99517.88;;;3.58;100.00
49311;BME280;35177;45.900;5.946;2023-02-10T09:24:31;99520.78;;;3.70;100.00
49311;BME280;35177;45.900;5.946;2023-02-10T09:26:57;99522.72;;;3.88;100.00
49311;BME280;35177;45.900;5.946;2023-02-10T09:29:23;99519.47;;;4.23;100.00
49311;BME280;35177;45.900;5.946;2023-02-10T09:31:48;99517.66;;;4.73;91.75
49311;BME280;35177;45.900;5.946;2023-02-10T09:34:14;99521.53;;;5.02;87.88
49311;BME280;35177;45.900;5.946;2023-02-10T09:36:40;99521.94;;;5.36;87.29
49311;BME280;35177;45.900;5.946;2023-02-10T09:39:05;99529.28;;;5.42;83.21
49311;BME280;35177;45.900;5.946;2023-02-10T09:44:16;99529.59;;;6.42;75.51
49311;BME280;35177;45.900;5.946;2023-02-10T09:46:47;99529.56;;;6.78;73.56
49311;BME280;35177;45.900;5.946;2023-02-10T09:52:11;99534.31;;;7.35;65.65
49311;BME280;35177;45.900;5.946;2023-02-10T09:54:39;99537.22;;;6.88;68.85
49311;BME280;35177;45.900;5.946;2023-02-10T09:57:11;99533.66;;;7.74;66.22
49311;BME280;35177;45.900;5.946;2023-02-10T09:59:38;99533.59;;;7.86;62.16
49311;BME280;35177;45.900;5.946;2023-02-10T10:02:20;99533.09;;;7.72;63.88
49311;BME280;35177;45.900;5.946;2023-02-10T10:04:47;99542.56;;;7.06;66.47
49311;BME280;35177;45.900;5.946;2023-02-10T10:07:34;99537.34;;;7.80;64.38
49311;BME280;35177;45.900;5.946;2023-02-10T10:12:29;99533.28;;;8.33;60.50
49311;BME280;35177;45.900;5.946;2023-02-10T10:14:55;99539.91;;;8.49;60.62
49311;BME280;35177;45.900;5.946;2023-02-10T10:21:30;99544.53;;;8.83;57.23
49311;BME280;35177;45.900;5.946;2023-02-10T10:23:35;99535.63;;;8.08;61.15
49311;BME280;35177;45.900;5.946;2023-02-10T10:26:15;99540.38;;;9.03;61.15
49311;BME280;35177;45.900;5.946;2023-02-10T10:31:55;99536.63;;;9.14;56.39
49311;BME280;35177;45.900;5.946;2023-02-10T10:34:23;99528.53;;;9.29;59.29
49311;BME280;35177;45.900;5.946;2023-02-10T10:36:55;99530.16;;;8.64;57.80
49311;BME280;35177;45.900;5.946;2023-02-10T10:39:34;99522.50;;;9.38;56.69
49311;BME280;35177;45.900;5.946;2023-02-10T10:42:26;99526.41;;;8.92;55.37
49311;BME280;35177;45.900;5.946;2023-02-10T10:44:59;99530.97;;;9.04;58.92
49311;BME280;35177;45.900;5.946;2023-02-10T10:47:38;99518.91;;;9.15;55.28
49311;BME280;35177;45.900;5.946;2023-02-10T10:50:12;99522.06;;;9.02;55.36
49311;BME280;35177;45.900;5.946;2023-02-10T10:52:41;99518.31;;;9.35;55.12
49311;BME280;35177;45.900;5.946;2023-02-10T10:55:22;99515.91;;;8.55;54.65
49311;BME280;35177;45.900;5.946;2023-02-10T10:57:51;99517.78;;;8.49;55.17
49311;BME280;35177;45.900;5.946;2023-02-10T11:00:23;99518.53;;;8.11;57.25
49311;BME280;35177;45.900;5.946;2023-02-10T11:02:56;99518.59;;;8.33;55.49
49311;BME280;35177;45.900;5.946;2023-02-10T11:05:28;99521.91;;;7.50;58.16
49311;BME280;35177;45.900;5.946;2023-02-10T11:07:56;99518.13;;;7.27;58.17
49311;BME280;35177;45.900;5.946;2023-02-10T11:10:49;99511.56;;;8.59;60.25
49311;BME280;35177;45.900;5.946;2023-02-10T11:13:21;99508.22;;;8.79;54.89
49311;BME280;35177;45.900;5.946;2023-02-10T11:15:48;99510.06;;;8.34;55.55
49311;BME280;35177;45.900;5.946;2023-02-10T11:18:18;99504.53;;;8.34;57.06
49311;BME280;35177;45.900;5.946;2023-02-10T11:21:00;99501.84;;;8.40;56.78
49311;BME280;35177;45.900;5.946;2023-02-10T11:23:27;99501.34;;;7.75;55.21
49311;BME280;35177;45.900;5.946;2023-02-10T11:25:57;99490.75;;;7.54;55.46
49311;BME280;35177;45.900;5.946;2023-02-10T11:28:26;99492.69;;;7.54;57.11
49311;BME280;35177;45.900;5.946;2023-02-10T11:30:59;99490.56;;;7.44;57.88
49311;BME280;35177;45.900;5.946;2023-02-10T11:33:28;99486.50;;;7.35;57.60
49311;BME280;35177;45.900;5.946;2023-02-10T11:36:02;99481.00;;;7.81;56.93
49311;BME280;35177;45.900;5.946;2023-02-10T11:38:29;99485.19;;;7.83;55.93
49311;BME280;35177;45.900;5.946;2023-02-10T11:40:56;99472.09;;;7.79;55.58
49311;BME280;35177;45.900;5.946;2023-02-10T11:43:49;99476.72;;;7.90;57.78
49311;BME280;35177;45.900;5.946;2023-02-10T11:46:26;99475.78;;;7.67;58.21
49311;BME280;35177;45.900;5.946;2023-02-10T11:48:57;99472.69;;;7.35;56.99
49311;BME280;35177;45.900;5.946;2023-02-10T11:51:24;99475.09;;;7.60;58.05
49311;BME280;35177;45.900;5.946;2023-02-10T11:53:50;99464.75;;;7.38;58.00
49311;BME280;35177;45.900;5.946;2023-02-10T12:00:16;99471.94;;;6.94;60.97
49311;BME280;35177;45.900;5.946;2023-02-10T12:05:47;99478.59;;;7.10;62.78
49311;BME280;35177;45.900;5.946;2023-02-10T12:10:55;99466.63;;;7.33;60.17
49311;BME280;35177;45.900;5.946;2023-02-10T12:13:48;99459.41;;;7.32;60.04
49311;BME280;35177;45.900;5.946;2023-02-10T12:22:12;99462.66;;;7.00;58.27
49311;BME280;35177;45.900;5.946;2023-02-10T12:25:16;99464.97;;;6.91;58.43
49311;BME280;35177;45.900;5.946;2023-02-10T12:28:09;99464.03;;;6.85;60.50
49311;BME280;35177;45.900;5.946;2023-02-10T12:39:00;99455.75;;;6.85;59.27
49311;BME280;35177;45.900;5.946;2023-02-10T12:44:08;99459.56;;;6.55;58.98
49311;BME280;35177;45.900;5.946;2023-02-10T12:47:02;99452.56;;;6.65;58.55
49311;BME280;35177;45.900;5.946;2023-02-10T12:52:27;99447.41;;;6.68;59.75
49311;BME280;35177;45.900;5.946;2023-02-10T13:02:32;99444.19;;;6.59;58.64
49311;BME280;35177;45.900;5.946;2023-02-10T13:05:09;99441.66;;;6.70;59.04
49311;BME280;35177;45.900;5.946;2023-02-10T13:07:59;99445.41;;;6.52;58.06
49311;BME280;35177;45.900;5.946;2023-02-10T13:10:38;99437.22;;;6.57;57.63
49311;BME280;35177;45.900;5.946;2023-02-10T13:13:19;99442.31;;;6.77;59.71
49311;BME280;35177;45.900;5.946;2023-02-10T13:18:22;99429.84;;;6.74;58.46
49311;BME280;35177;45.900;5.946;2023-02-10T13:23:42;99440.53;;;6.71;57.27
49311;BME280;35177;45.900;5.946;2023-02-10T13:26:32;99435.59;;;6.85;61.50
49311;BME280;35177;45.900;5.946;2023-02-10T13:31:59;99443.09;;;6.72;57.27
49311;BME280;35177;45.900;5.946;2023-02-10T13:34:32;99439.53;;;6.60;58.91
49311;BME280;35177;45.900;5.946;2023-02-10T13:37:10;99439.00;;;6.63;59.29
49311;BME280;35177;45.900;5.946;2023-02-10T13:39:38;99443.97;;;6.37;57.25
49311;BME280;35177;45.900;5.946;2023-02-10T13:42:35;99430.56;;;6.41;58.94
49311;BME280;35177;45.900;5.946;2023-02-10T13:53:02;99431.06;;;6.38;58.81
49311;BME280;35177;45.900;5.946;2023-02-10T13:58:17;99432.22;;;6.42;64.04
49311;BME280;35177;45.900;5.946;2023-02-10T14:00:52;99430.44;;;6.36;62.63
49311;BME280;35177;45.900;5.946;2023-02-10T14:03:31;99432.00;;;6.32;67.68
49311;BME280;35177;45.900;5.946;2023-02-10T14:08:32;99424.56;;;6.44;63.98
49311;BME280;35177;45.900;5.946;2023-02-10T14:13:31;99420.13;;;6.43;63.79
49311;BME280;35177;45.900;5.946;2023-02-10T14:16:36;99430.09;;;6.20;61.33
49311;BME280;35177;45.900;5.946;2023-02-10T14:19:19;99427.13;;;6.22;60.72
49311;BME280;35177;45.900;5.946;2023-02-10T14:21:47;99425.19;;;6.22;60.51
49311;BME280;35177;45.900;5.946;2023-02-10T14:24:16;99430.69;;;6.22;61.62
49311;BME280;35177;45.900;5.946;2023-02-10T14:26:44;99431.06;;;6.26;61.98
49311;BME280;35177;45.900;5.946;2023-02-10T14:29:16;99428.75;;;6.23;63.56
49311;BME280;35177;45.900;5.946;2023-02-10T14:31:44;99426.00;;;6.23;63.48
49311;BME280;35177;45.900;5.946;2023-02-10T14:34:22;99424.94;;;6.24;65.55
49311;BME280;35177;45.900;5.946;2023-02-10T14:36:56;99433.34;;;6.17;61.86
49311;BME280;35177;45.900;5.946;2023-02-10T14:39:24;99429.50;;;6.18;61.63
49311;BME280;35177;45.900;5.946;2023-02-10T14:41:50;99430.13;;;6.08;60.85
49311;BME280;35177;45.900;5.946;2023-02-10T14:44:38;99417.88;;;6.04;59.79